createdAt,value
2018-09-13T00:00:15.190Z,20.39
2018-09-13T00:02:42.966Z,20.37
2018-09-13T00:05:11.326Z,20.36
2018-09-13T00:07:39.008Z,20.34
2018-09-13T00:10:06.741Z,20.33
2018-09-13T00:12:34.405Z,20.32
2018-09-13T00:15:02.071Z,20.31
2018-09-13T00:17:30.065Z,20.30
2018-09-13T00:19:57.773Z,20.30
2018-09-13T00:22:25.444Z,20.29
2018-09-13T00:24:53.556Z,20.27
2018-09-13T00:27:21.557Z,20.26
2018-09-13T00:29:49.836Z,20.27
2018-09-13T00:32:17.771Z,20.26
2018-09-13T00:34:45.818Z,20.24
2018-09-13T00:37:13.491Z,20.23
2018-09-13T00:39:41.147Z,20.23
2018-09-13T00:42:08.806Z,20.23
2018-09-13T00:44:36.525Z,20.21
2018-09-13T00:47:08.640Z,20.20
2018-09-13T00:49:36.413Z,20.21
2018-09-13T00:52:04.069Z,20.19
2018-09-13T00:54:32.260Z,20.18
2018-09-13T00:57:00.500Z,20.19
2018-09-13T00:59:28.417Z,20.19
2018-09-13T01:01:56.080Z,20.20
2018-09-13T01:04:23.725Z,20.19
2018-09-13T01:06:52.140Z,20.19
2018-09-13T01:09:20.024Z,20.19
2018-09-13T01:11:47.760Z,20.17
2018-09-13T01:14:15.905Z,20.17
2018-09-13T01:16:43.770Z,20.17
2018-09-13T01:19:12.092Z,20.17
2018-09-13T01:21:40.141Z,20.16
2018-09-13T01:24:07.791Z,20.16
2018-09-13T01:26:35.719Z,20.18
2018-09-13T01:29:03.457Z,20.16
2018-09-13T01:31:31.455Z,20.13
2018-09-13T01:33:59.352Z,20.13
2018-09-13T01:36:27.367Z,20.13
2018-09-13T01:38:55.114Z,20.11
2018-09-13T01:41:22.749Z,20.12
2018-09-13T01:43:51.509Z,20.11
2018-09-13T01:46:19.178Z,20.10
2018-09-13T01:48:47.936Z,20.08
2018-09-13T01:51:15.638Z,20.09
2018-09-13T01:53:43.936Z,20.08
2018-09-13T01:56:11.663Z,20.08
2018-09-13T01:58:39.301Z,20.07
2018-09-13T02:01:07.390Z,20.07
2018-09-13T02:03:35.325Z,20.06
2018-09-13T02:06:03.355Z,20.06
2018-09-13T02:08:31.327Z,20.04
2018-09-13T02:10:58.966Z,20.04
2018-09-13T02:13:26.983Z,20.04
2018-09-13T02:15:54.980Z,20.02
2018-09-13T02:18:23.001Z,20.02
2018-09-13T02:20:50.685Z,20.02
2018-09-13T02:23:18.350Z,20.03
2018-09-13T02:25:46.020Z,20.01
2018-09-13T02:28:14.104Z,20.01
2018-09-13T02:30:42.013Z,20.01
2018-09-13T02:33:10.124Z,20.00
2018-09-13T02:35:37.785Z,19.99
2018-09-13T02:38:05.566Z,19.97
2018-09-13T02:40:33.281Z,19.96
2018-09-13T02:43:01.253Z,19.95
2018-09-13T02:45:29.536Z,19.96
2018-09-13T02:47:57.548Z,19.94
2018-09-13T02:50:25.245Z,19.95
2018-09-13T02:52:53.130Z,19.95
2018-09-13T02:55:21.127Z,19.94
2018-09-13T02:57:49.140Z,19.93
2018-09-13T03:00:17.142Z,19.91
2018-09-13T03:02:44.821Z,19.91
2018-09-13T03:05:12.702Z,19.88
2018-09-13T03:07:40.782Z,19.88
2018-09-13T03:10:08.466Z,19.87
2018-09-13T03:12:36.374Z,19.86
2018-09-13T03:15:04.999Z,19.86
2018-09-13T03:17:32.721Z,19.85
2018-09-13T03:20:00.401Z,19.84
2018-09-13T03:22:28.115Z,19.83
2018-09-13T03:24:56.320Z,19.82
2018-09-13T03:27:24.096Z,19.83
2018-09-13T03:29:52.659Z,19.82
2018-09-13T03:32:21.315Z,19.82
2018-09-13T03:34:49.341Z,19.82
2018-09-13T03:37:17.861Z,19.79
2018-09-13T03:39:45.835Z,19.77
2018-09-13T03:42:13.492Z,19.76
2018-09-13T03:44:41.171Z,19.75
2018-09-13T03:47:09.122Z,19.75
2018-09-13T03:49:37.141Z,19.74
2018-09-13T03:52:04.838Z,19.75
2018-09-13T03:54:32.513Z,19.76
2018-09-13T03:57:00.198Z,19.76
2018-09-13T03:59:27.945Z,19.75
2018-09-13T04:01:56.780Z,19.74
2018-09-13T04:04:25.168Z,19.76
2018-09-13T04:06:52.822Z,19.74
2018-09-13T04:09:20.906Z,19.73
2018-09-13T04:11:48.507Z,19.71
2018-09-13T04:14:16.211Z,19.70
2018-09-13T04:16:44.199Z,19.69
2018-09-13T04:19:11.900Z,19.68
2018-09-13T04:21:39.891Z,19.66
2018-09-13T04:24:07.598Z,19.67
2018-09-13T04:26:35.235Z,19.69
2018-09-13T04:29:03.253Z,19.69
2018-09-13T04:31:31.420Z,19.69
2018-09-13T04:33:59.159Z,19.70
2018-09-13T04:36:26.868Z,19.69
2018-09-13T04:38:54.590Z,19.69
2018-09-13T04:41:22.387Z,19.69
2018-09-13T04:43:50.418Z,19.68
2018-09-13T04:46:18.074Z,19.67
2018-09-13T04:48:45.750Z,19.67
2018-09-13T04:51:13.864Z,19.69
2018-09-13T04:53:42.034Z,19.67
2018-09-13T04:56:09.816Z,19.64
2018-09-13T04:58:37.558Z,19.62
2018-09-13T05:01:05.815Z,19.60
2018-09-13T05:03:33.526Z,19.60
2018-09-13T05:06:01.178Z,19.58
2018-09-13T05:08:29.201Z,19.58
2018-09-13T05:10:56.859Z,19.56
2018-09-13T05:13:24.537Z,19.55
2018-09-13T05:15:52.238Z,19.57
2018-09-13T05:18:20.162Z,19.57
2018-09-13T05:20:47.942Z,19.59
2018-09-13T05:23:15.565Z,19.59
2018-09-13T05:25:43.896Z,19.60
2018-09-13T05:28:11.817Z,19.63
2018-09-13T05:30:39.719Z,19.67
2018-09-13T05:33:07.771Z,19.69
2018-09-13T05:35:35.460Z,19.70
2018-09-13T05:38:03.676Z,19.74
2018-09-13T05:40:31.606Z,19.75
2018-09-13T05:42:59.635Z,19.77
2018-09-13T05:45:28.432Z,19.79
2018-09-13T05:47:56.125Z,19.80
2018-09-13T05:50:23.821Z,19.80
2018-09-13T05:52:52.327Z,19.82
2018-09-13T05:55:20.223Z,19.82
2018-09-13T05:57:47.830Z,19.87
2018-09-13T06:00:15.558Z,19.86
2018-09-13T06:02:43.916Z,19.90
2018-09-13T06:05:11.772Z,19.93
2018-09-13T06:07:39.869Z,19.95
2018-09-13T06:10:07.867Z,19.95
2018-09-13T06:12:35.800Z,19.99
2018-09-13T06:15:03.856Z,19.99
2018-09-13T06:17:31.511Z,20.06
2018-09-13T06:20:00.606Z,20.10
2018-09-13T06:22:28.622Z,20.10
2018-09-13T06:24:56.321Z,20.12
2018-09-13T06:27:24.279Z,20.14
2018-09-13T06:29:52.560Z,20.16
2018-09-13T06:32:20.372Z,20.18
2018-09-13T06:34:48.630Z,20.20
2018-09-13T06:37:16.358Z,20.18
2018-09-13T06:39:44.101Z,20.14
2018-09-13T06:42:12.055Z,20.11
2018-09-13T06:44:39.790Z,20.10
2018-09-13T06:47:07.684Z,20.10
2018-09-13T06:49:35.354Z,20.10
2018-09-13T06:52:03.054Z,20.09
2018-09-13T06:54:30.716Z,20.10
2018-09-13T06:56:58.425Z,20.10
2018-09-13T06:59:26.107Z,20.13
2018-09-13T07:01:54.046Z,20.12
2018-09-13T07:04:22.381Z,20.13
2018-09-13T07:06:50.430Z,20.15
2018-09-13T07:09:18.309Z,20.13
2018-09-13T07:11:46.850Z,20.14
2018-09-13T07:14:14.755Z,20.17
2018-09-13T07:16:42.660Z,20.18
2018-09-13T07:19:10.399Z,20.18
2018-09-13T07:21:38.374Z,20.19
2018-09-13T07:24:06.110Z,20.21
2018-09-13T07:26:33.863Z,20.23
2018-09-13T07:29:02.210Z,20.25
2018-09-13T07:31:29.916Z,20.26
2018-09-13T07:33:57.593Z,20.29
2018-09-13T07:36:25.642Z,20.32
2018-09-13T07:38:53.673Z,20.34
2018-09-13T07:41:21.503Z,20.37
2018-09-13T07:43:49.452Z,20.38
2018-09-13T07:46:17.353Z,20.42
2018-09-13T07:48:45.328Z,20.43
2018-09-13T07:51:13.265Z,20.45
2018-09-13T07:53:40.895Z,20.47
2018-09-13T07:56:09.123Z,20.49
2018-09-13T07:58:36.921Z,20.50
2018-09-13T08:01:04.856Z,20.52
2018-09-13T08:03:32.591Z,20.54
2018-09-13T08:06:00.557Z,20.52
2018-09-13T08:08:28.629Z,20.51
2018-09-13T08:10:56.298Z,20.50
2018-09-13T08:13:24.247Z,20.49
2018-09-13T08:15:52.040Z,20.50
2018-09-13T08:18:20.224Z,20.51
2018-09-13T08:20:48.506Z,20.51
2018-09-13T08:23:16.532Z,20.51
2018-09-13T08:25:44.185Z,20.52
2018-09-13T08:28:11.917Z,20.55
2018-09-13T08:30:39.544Z,20.55
2018-09-13T08:33:07.404Z,20.56
2018-09-13T08:35:35.082Z,20.57
2018-09-13T08:38:02.871Z,20.58
2018-09-13T08:40:30.663Z,20.59
2018-09-13T08:42:58.339Z,20.63
2018-09-13T08:45:26.336Z,20.66
2018-09-13T08:47:54.282Z,20.71
2018-09-13T08:50:22.203Z,20.78
2018-09-13T08:52:49.868Z,20.87
2018-09-13T08:55:17.571Z,20.91
2018-09-13T08:57:45.291Z,20.96
2018-09-13T09:00:14.088Z,20.99
2018-09-13T09:02:42.543Z,21.05
2018-09-13T09:05:10.346Z,21.07
2018-09-13T09:07:38.683Z,21.06
2018-09-13T09:10:06.414Z,21.08
2018-09-13T09:12:34.159Z,21.11
2018-09-13T09:15:01.830Z,21.15
2018-09-13T09:17:29.801Z,21.19
2018-09-13T09:19:57.673Z,21.24
2018-09-13T09:22:25.520Z,21.26
2018-09-13T09:24:54.322Z,21.30
2018-09-13T09:27:22.021Z,21.30
2018-09-13T09:29:49.725Z,21.31
2018-09-13T09:32:17.561Z,21.31
2018-09-13T09:34:45.796Z,21.31
2018-09-13T09:37:13.805Z,21.29
2018-09-13T09:39:41.549Z,21.28
2018-09-13T09:42:09.443Z,21.27
2018-09-13T09:44:37.437Z,21.31
2018-09-13T09:47:05.454Z,21.34
2018-09-13T09:49:33.818Z,21.35
2018-09-13T09:52:02.768Z,21.38
2018-09-13T09:54:30.645Z,21.41
2018-09-13T09:56:58.315Z,21.45
2018-09-13T09:59:25.959Z,21.50
2018-09-13T10:01:59.205Z,21.51
2018-09-13T10:04:26.852Z,21.52
2018-09-13T10:06:55.137Z,21.52
2018-09-13T10:09:23.280Z,21.55
2018-09-13T10:11:50.946Z,21.55
2018-09-13T10:14:18.926Z,21.51
2018-09-13T10:16:52.503Z,21.50
2018-09-13T10:19:25.738Z,21.47
2018-09-13T10:21:59.018Z,21.53
2018-09-13T10:24:32.538Z,21.57
2018-09-13T10:27:05.750Z,21.58
2018-09-13T10:33:23.599Z,21.60
2018-09-13T10:35:56.807Z,21.63
2018-09-13T10:38:30.642Z,21.68
2018-09-13T10:43:11.405Z,21.73
2018-09-13T10:45:44.776Z,21.82
2018-09-13T10:48:19.016Z,21.89
2018-09-13T10:50:52.239Z,21.97
2018-09-13T10:53:27.063Z,22.01
2018-09-13T10:55:55.766Z,22.06
2018-09-13T10:58:23.806Z,22.10
2018-09-13T11:00:52.150Z,22.12
2018-09-13T11:03:19.814Z,22.12
2018-09-13T11:05:47.959Z,22.13
2018-09-13T11:08:15.691Z,22.10
2018-09-13T11:10:43.491Z,22.09
2018-09-13T11:13:16.921Z,22.11
2018-09-13T11:15:45.114Z,22.12
2018-09-13T11:18:13.749Z,22.16
2018-09-13T11:20:41.453Z,22.23
2018-09-13T11:23:09.276Z,22.22
2018-09-13T11:25:36.998Z,22.19
2018-09-13T11:28:05.601Z,22.26
2018-09-13T11:30:33.644Z,22.28
2018-09-13T11:33:01.289Z,22.26
2018-09-13T11:35:29.296Z,22.27
2018-09-13T11:37:57.281Z,22.30
2018-09-13T11:40:25.937Z,22.31
2018-09-13T11:42:53.926Z,22.34
2018-09-13T11:45:21.632Z,22.39
2018-09-13T11:47:49.588Z,22.45
2018-09-13T11:50:17.277Z,22.47
2018-09-13T11:52:44.934Z,22.51
2018-09-13T11:55:12.936Z,22.52
2018-09-13T11:57:40.637Z,22.54
2018-09-13T12:00:08.635Z,22.56
2018-09-13T12:02:36.320Z,22.58
2018-09-13T12:05:04.098Z,22.63
2018-09-13T12:07:31.742Z,22.70
2018-09-13T12:10:00.050Z,22.77
2018-09-13T12:12:27.956Z,22.82
2018-09-13T12:14:55.629Z,22.88
2018-09-13T12:17:23.259Z,22.84
2018-09-13T12:19:51.407Z,22.83
2018-09-13T12:22:19.034Z,22.78
2018-09-13T12:24:46.946Z,22.73
2018-09-13T12:27:15.294Z,22.70
2018-09-13T12:29:43.268Z,22.71
2018-09-13T12:32:10.961Z,22.81
2018-09-13T12:34:39.654Z,22.86
2018-09-13T12:37:07.295Z,22.88
2018-09-13T12:39:35.876Z,22.91
2018-09-13T12:42:03.928Z,22.87
2018-09-13T12:44:32.434Z,22.85
2018-09-13T12:47:00.144Z,22.79
2018-09-13T12:49:27.918Z,22.76
2018-09-13T12:51:55.907Z,22.75
2018-09-13T12:54:23.625Z,22.80
2018-09-13T12:56:51.402Z,22.85
2018-09-13T12:59:19.931Z,22.92
2018-09-13T13:01:48.224Z,22.96
2018-09-13T13:04:16.357Z,23.03
2018-09-13T13:06:44.528Z,23.08
2018-09-13T13:09:12.675Z,23.14
2018-09-13T13:11:40.970Z,23.20
2018-09-13T13:14:08.616Z,23.29
2018-09-13T13:16:36.643Z,23.34
2018-09-13T13:19:04.610Z,23.39
2018-09-13T13:21:32.481Z,23.44
2018-09-13T13:24:00.482Z,23.52
2018-09-13T13:26:28.398Z,23.56
2018-09-13T13:28:56.095Z,23.52
2018-09-13T13:31:23.820Z,23.46
2018-09-13T13:33:51.439Z,23.37
2018-09-13T13:36:19.182Z,23.28
2018-09-13T13:38:46.884Z,23.22
2018-09-13T13:41:14.541Z,23.35
2018-09-13T13:43:42.270Z,23.30
2018-09-13T13:46:09.915Z,23.23
2018-09-13T13:48:37.859Z,23.23
2018-09-13T13:51:05.444Z,23.20
2018-09-13T13:53:33.305Z,23.24
2018-09-13T13:56:01.411Z,23.33
2018-09-13T13:58:29.431Z,23.40
2018-09-13T14:00:57.369Z,23.51
2018-09-13T14:03:25.031Z,23.70
2018-09-13T14:05:52.755Z,23.85
2018-09-13T14:08:20.985Z,23.84
2018-09-13T14:10:48.705Z,23.87
2018-09-13T14:13:16.543Z,23.92
2018-09-13T14:15:44.794Z,24.01
2018-09-13T14:18:12.729Z,24.12
2018-09-13T14:20:40.825Z,24.27
2018-09-13T14:23:09.548Z,24.55
2018-09-13T14:25:37.734Z,24.84
2018-09-13T14:28:05.642Z,25.05
2018-09-13T14:30:33.854Z,25.21
2018-09-13T14:33:01.790Z,25.34
2018-09-13T14:35:29.746Z,25.43
2018-09-13T14:37:57.359Z,25.50
2018-09-13T14:40:25.065Z,25.57
2018-09-13T14:42:53.295Z,25.62
2018-09-13T14:45:21.650Z,25.69
2018-09-13T14:47:50.015Z,25.76
2018-09-13T14:50:18.229Z,25.83
2018-09-13T14:52:46.161Z,25.88
2018-09-13T14:55:14.393Z,25.94
2018-09-13T14:57:42.367Z,26.05
2018-09-13T15:00:10.417Z,26.13
2018-09-13T15:02:38.536Z,26.23
2018-09-13T15:05:06.289Z,26.32
2018-09-13T15:07:34.813Z,26.42
2018-09-13T15:10:02.784Z,26.45
2018-09-13T15:12:30.725Z,26.60
2018-09-13T15:14:58.693Z,26.71
2018-09-13T15:17:26.744Z,26.78
2018-09-13T15:19:54.386Z,26.87
2018-09-13T15:22:22.398Z,26.92
2018-09-13T15:24:50.500Z,27.00
2018-09-13T15:27:18.207Z,27.05
2018-09-13T15:29:45.870Z,27.06
2018-09-13T15:32:13.551Z,27.06
2018-09-13T15:34:41.257Z,27.04
2018-09-13T15:37:09.066Z,27.05
2018-09-13T15:39:36.947Z,27.04
2018-09-13T15:42:04.707Z,26.97
2018-09-13T15:44:33.234Z,26.80
2018-09-13T15:47:01.490Z,26.47
2018-09-13T15:49:29.481Z,26.08
2018-09-13T15:51:57.410Z,25.78
2018-09-13T15:54:25.418Z,25.57
2018-09-13T15:56:53.445Z,25.47
2018-09-13T15:59:21.224Z,25.39
2018-09-13T16:01:48.991Z,25.34
2018-09-13T16:04:19.004Z,25.28
2018-09-13T16:06:48.194Z,25.21
2018-09-13T16:09:16.330Z,25.14
2018-09-13T16:11:44.605Z,25.09
2018-09-13T16:14:12.524Z,25.02
2018-09-13T16:16:40.458Z,24.97
2018-09-13T16:19:08.238Z,24.90
2018-09-13T16:21:35.891Z,24.82
2018-09-13T16:24:03.937Z,24.71
2018-09-13T16:26:31.845Z,24.63
2018-09-13T16:28:59.825Z,24.55
2018-09-13T16:31:28.082Z,24.48
2018-09-13T16:33:56.097Z,24.41
2018-09-13T16:36:25.322Z,24.31
2018-09-13T16:38:58.863Z,24.23
2018-09-13T16:41:38.694Z,24.17
2018-09-13T16:44:06.333Z,24.09
2018-09-13T16:46:39.623Z,24.03
2018-09-13T16:49:07.734Z,23.98
2018-09-13T16:51:36.416Z,23.92
2018-09-13T16:54:04.681Z,23.87
2018-09-13T16:56:32.489Z,23.83
2018-09-13T16:59:00.850Z,23.78
2018-09-13T17:01:29.575Z,23.76
2018-09-13T17:03:57.546Z,23.75
2018-09-13T17:06:25.728Z,23.79
2018-09-13T17:08:53.652Z,23.86
2018-09-13T17:11:21.568Z,23.88
2018-09-13T17:13:49.342Z,23.88
2018-09-13T17:16:17.123Z,23.84
2018-09-13T17:18:45.209Z,23.77
2018-09-13T17:21:12.902Z,23.70
2018-09-13T17:23:41.049Z,23.65
2018-09-13T17:26:08.901Z,23.59
2018-09-13T17:28:36.784Z,23.53
2018-09-13T17:31:04.494Z,23.45
2018-09-13T17:33:32.482Z,23.39
2018-09-13T17:36:00.157Z,23.33
2018-09-13T17:38:28.317Z,23.28
2018-09-13T17:40:56.073Z,23.23
2018-09-13T17:43:24.537Z,23.17
2018-09-13T17:45:52.756Z,23.13
2018-09-13T17:48:20.550Z,23.07
2018-09-13T17:50:48.249Z,23.02
2018-09-13T17:53:16.402Z,22.97
2018-09-13T17:55:44.108Z,22.93
2018-09-13T17:58:11.855Z,22.87
2018-09-13T18:00:39.894Z,22.83
2018-09-13T18:03:07.901Z,22.79
2018-09-13T18:05:36.078Z,22.75
2018-09-13T18:08:03.958Z,22.71
2018-09-13T18:10:31.622Z,22.67
2018-09-13T18:12:59.892Z,22.65
2018-09-13T18:15:27.634Z,22.62
2018-09-13T18:17:55.342Z,22.60
2018-09-13T18:20:23.558Z,22.58
2018-09-13T18:22:51.302Z,22.58
2018-09-13T18:25:18.962Z,22.57
2018-09-13T18:27:46.680Z,22.54
2018-09-13T18:30:14.683Z,22.44
2018-09-13T18:32:42.628Z,22.51
2018-09-13T18:35:10.345Z,22.48
2018-09-13T18:37:38.647Z,22.47
2018-09-13T18:40:06.326Z,22.45
2018-09-13T18:42:34.866Z,22.42
2018-09-13T18:45:02.911Z,22.38
2018-09-13T18:47:31.166Z,22.35
2018-09-13T18:49:59.104Z,22.32
2018-09-13T18:52:26.894Z,22.29
2018-09-13T18:54:54.810Z,22.25
2018-09-13T18:57:22.731Z,22.23
2018-09-13T18:59:50.720Z,22.21
2018-09-13T19:02:18.377Z,22.17
2018-09-13T19:04:46.086Z,22.16
2018-09-13T19:07:14.092Z,22.13
2018-09-13T19:09:41.962Z,22.10
2018-09-13T19:12:09.949Z,22.09
2018-09-13T19:14:37.830Z,22.07
2018-09-13T19:17:05.703Z,22.04
2018-09-13T19:19:33.335Z,22.02
2018-09-13T19:22:00.978Z,22.02
2018-09-13T19:24:28.793Z,22.00
2018-09-13T19:26:57.395Z,21.98
2018-09-13T19:29:25.075Z,21.94
2018-09-13T19:31:52.730Z,21.92
2018-09-13T19:34:20.393Z,21.91
2018-09-13T19:36:48.036Z,21.89
2018-09-13T19:39:15.762Z,21.87
2018-09-13T19:41:43.742Z,21.86
2018-09-13T19:44:11.502Z,21.85
2018-09-13T19:46:39.707Z,21.84
2018-09-13T19:49:08.349Z,21.80
2018-09-13T19:51:36.358Z,21.79
2018-09-13T19:54:05.168Z,21.77
2018-09-13T19:56:33.824Z,21.74
2018-09-13T19:59:02.538Z,21.73
2018-09-13T20:01:31.422Z,21.71
2018-09-13T20:03:59.310Z,21.69
2018-09-13T20:06:28.011Z,21.68
2018-09-13T20:09:00.105Z,21.66
2018-09-13T20:11:29.206Z,21.64
2018-09-13T20:13:57.222Z,21.62
2018-09-13T20:16:26.116Z,21.65
2018-09-13T20:18:55.245Z,21.67
2018-09-13T20:21:23.277Z,21.67
2018-09-13T20:23:51.035Z,21.64
2018-09-13T20:26:19.873Z,21.63
2018-09-13T20:28:49.135Z,21.61
2018-09-13T20:31:17.374Z,21.61
2018-09-13T20:33:45.309Z,21.60
2018-09-13T20:36:12.990Z,21.58
2018-09-13T20:38:41.800Z,21.57
2018-09-13T20:41:10.831Z,21.56
2018-09-13T20:43:38.897Z,21.56
2018-09-13T20:46:06.725Z,21.57
2018-09-13T20:48:35.234Z,21.58
2018-09-13T20:51:03.484Z,21.57
2018-09-13T20:53:32.527Z,21.56
2018-09-13T20:56:01.249Z,21.54
2018-09-13T20:58:29.446Z,21.53
2018-09-13T21:00:58.098Z,21.52
2018-09-13T21:03:27.519Z,21.52
2018-09-13T21:05:56.668Z,21.52
2018-09-13T21:08:25.501Z,21.52
2018-09-13T21:10:54.108Z,21.51
2018-09-13T21:13:22.817Z,21.51
2018-09-13T21:15:51.766Z,21.50
2018-09-13T21:18:20.228Z,21.51
2018-09-13T21:20:48.715Z,21.48
2018-09-13T21:23:16.997Z,21.47
2018-09-13T21:25:45.073Z,21.46
2018-09-13T21:28:12.897Z,21.47
2018-09-13T21:30:40.578Z,21.45
2018-09-13T21:33:09.097Z,21.46
2018-09-13T21:35:37.150Z,21.45
2018-09-13T21:38:05.891Z,21.44
2018-09-13T21:40:34.490Z,21.43
2018-09-13T21:43:03.320Z,21.42
2018-09-13T21:45:31.119Z,21.43
2018-09-13T21:47:59.245Z,21.40
2018-09-13T21:50:27.865Z,21.41
2018-09-13T21:52:57.103Z,21.40
2018-09-13T21:55:25.735Z,21.40
2018-09-13T21:57:53.406Z,21.38
2018-09-13T22:00:21.906Z,21.39
2018-09-13T22:02:49.754Z,21.38
2018-09-13T22:05:17.883Z,21.37
2018-09-13T22:07:46.728Z,21.35
2018-09-13T22:10:14.482Z,21.35
2018-09-13T22:12:42.360Z,21.34
2018-09-13T22:15:10.096Z,21.35
2018-09-13T22:17:38.425Z,21.31
2018-09-13T22:20:06.878Z,21.32
2018-09-13T22:22:35.081Z,21.33
2018-09-13T22:25:03.425Z,21.31
2018-09-13T22:27:31.570Z,21.29
2018-09-13T22:29:59.571Z,21.31
2018-09-13T22:32:28.480Z,21.30
2018-09-13T22:34:57.237Z,21.29
2018-09-13T22:37:25.930Z,21.26
2018-09-13T22:39:53.797Z,21.24
2018-09-13T22:42:21.484Z,21.23
2018-09-13T22:44:49.288Z,21.23
2018-09-13T22:47:17.162Z,21.25
2018-09-13T22:49:46.239Z,21.28
2018-09-13T22:52:14.702Z,21.31
2018-09-13T22:54:42.864Z,21.34
2018-09-13T22:57:11.185Z,21.34
2018-09-13T22:59:39.262Z,21.34
2018-09-13T23:02:07.680Z,21.34
2018-09-13T23:04:35.375Z,21.33
2018-09-13T23:07:03.062Z,21.32
2018-09-13T23:09:30.762Z,21.31
2018-09-13T23:11:58.492Z,21.32
2018-09-13T23:14:26.199Z,21.30
2018-09-13T23:16:54.124Z,21.25
2018-09-13T23:19:22.377Z,21.26
2018-09-13T23:21:50.118Z,21.23
2018-09-13T23:24:18.095Z,21.22
2018-09-13T23:26:46.452Z,21.18
2018-09-13T23:29:14.137Z,21.15
2018-09-13T23:31:41.840Z,21.12
2018-09-13T23:34:09.735Z,21.08
2018-09-13T23:36:37.404Z,21.05
2018-09-13T23:39:08.164Z,21.06
2018-09-13T23:41:36.418Z,21.02
2018-09-13T23:44:04.303Z,21.00
2018-09-13T23:46:32.541Z,20.99
2018-09-13T23:49:00.212Z,20.97
2018-09-13T23:51:28.312Z,20.95
2018-09-13T23:53:56.013Z,20.93
2018-09-13T23:56:23.988Z,20.92
2018-09-13T23:58:51.688Z,20.90
